Frontenac, New York
Current Conditions -  °F | °C
As of 8:56 PM on Sunday 23 Nov 2014 (Local Time) from KART Reporting Station
Scattered Clouds Scattered Clouds  
Wind Chill: 52°   Ceiling: Unl
Heat Index: 52°   Visibility: 10mi
Dew Point: 34°   Wind: 9mph
Humidity: 50%   Direction: 160°SSE
Pressure: 29.87"   Gusts: NA
Location:  44.1926°N, 76.1112°W
Report Text: KART 240156Z AUTO 16008KT 10SM SCT085 11/01 A2987 RMK AO2 SLP115 T01110011
Loading
Personal Weather Stations






























Interactive Weather Map New forecast layout! Learn more

10-Day Weather Forecast

Advertisements
Track Severe Weather on mobile